Strona główna
METAR-TAF:

METAR-TAF

Lotnisko :

Ponta Delgada, Azory, Portugalia

Port lotniczy Ponta Delgada

Szerokość geograficzna: 37-44N, Długość geograficzna: 025-42W, wysokość: 71 m

Aktualna obserwacja pogody

Raport powstał 22 minut temu, godzina 03:30 UTC
Wiatr 4 kt od północ
Temperatura 14°C
Wilgotność 72%
Ciśnienie 1032 hPa
Widzialność 10 km lub więcej
Mało chmury na wysokości 1800 ft
Przerywane chmury na wysokości 3000 ft

METAR: LPPD 180330Z 01004KT 9999 FEW018 BKN030 14/09 Q1032

czas: 02:52 (03:52 UTC)

Prognoza

Raport powstał 4 godziny i 52 minut temu, godzina 23:00 UTC
Prognoza ważna od 18 godzina 00 UTC do 18 godzina 24 UTC
Wiatr 5 kt z kierunków zmiennych
Widzialność 10 km lub więcej
Mało chmury na wysokości 1500 ft
Przerywane chmury na wysokości 3000 ft
Przejściowo
od 18 godzina 00 UTC do 18 godzina 12 UTC
Rozproszone chmury na wysokości 2500 ft

TAF: LPPD 172300Z 1800/1824 VRB05KT 9999 FEW015 BKN030 TEMPO 1800/1812 SCT025

Obserwacja i prognoza pogody dla ponad 4000 lotnisk (raport METAR i TAF).

Dostępne stacje oznaczono żółtymi i czerwonymi punktami na mapie.

Najedź kursorem aby zobaczyć nazwę stacji.

Kliknij aby zobaczyć obserwacje i prognozy pogody.

Aby zmienić mapę: kliknij na zielony przycisk z czarnym krzyżykiem, aby powiększyć; na zielony przycisk z myślnikiem, aby pomniejszyć; na zielone strzałki, aby przejść do map sąsiednich.


METAR-TAF: